Startpagina
METAR-TAF:

METAR-TAF

Vliegvelden :

Cardiff Airport

Cardiff, Wales

breedte: 51-24N, lengte: 003-21W, hoogte: 67 m

Actueel weer

Dit bericht is 32 minuten geleden gemaakt, om 12:50 UTC
Wind 7 kt uit het oosten, variërend tussen het noordoosten en het zuidzuidoosten
Temperatuur 23°C
Vochtigheid 38%
Druk 1022 hPa
Zicht 10 km of meer

METAR: EGFF 301250Z AUTO 09007KT 050V160 9999 NCD 23/08 Q1022

Tijdstip: 14:22 (13:22 UTC)

Verwachting

Dit bericht is 2 uur en het 21 minuten geleden gemaakt, om 11:01 UTC
Verwachting geldig van 30 om 12 UTC tot 31 om 12 UTC
Wind 9 kt uit het oosten
Zicht 10 km of meer
geen wolken onder 1500 m en geen cumulonimbus

TAF: EGFF 301101Z 3012/3112 08009KT CAVOK

Waarnemingen en weersverwachtingen van meer dan 4000 vliegvelden (METAR en TAF).

De beschikbare stations zijn de gele en rode punten op de kaart.

Ga met uw muis naar het station om de naam te zien.

Klik dan om waarnemingen en weersverwachtingen te zien.

kaart wijzigen: klik op de groene knoppen met een zwart kruis om in te zoomen, op de groene knop met een streepje om uit te zoomen of op de groene pijlen voor aangrenzende kaarten.


METAR-TAF: